createdAt,value
2023-01-13T00:01:55.514Z,47.60
2023-01-13T00:04:27.077Z,34.47
2023-01-13T00:06:58.578Z,45.90
2023-01-13T00:09:30.029Z,37.28
2023-01-13T00:12:01.423Z,44.13
2023-01-13T00:14:36.551Z,42.72
2023-01-13T00:17:08.089Z,39.25
2023-01-13T00:19:39.546Z,43.43
2023-01-13T00:22:10.950Z,39.00
2023-01-13T00:24:42.356Z,40.97
2023-01-13T00:27:13.752Z,41.20
2023-01-13T00:29:45.151Z,42.08
2023-01-13T00:32:16.562Z,39.60
2023-01-13T00:34:47.949Z,42.33
2023-01-13T00:37:19.438Z,42.22
2023-01-13T00:39:52.249Z,49.33
2023-01-13T00:42:23.666Z,55.00
2023-01-13T00:44:55.057Z,43.03
2023-01-13T00:47:26.645Z,48.92
2023-01-13T00:49:58.058Z,43.38
2023-01-13T00:52:32.349Z,44.95
2023-01-13T00:55:04.017Z,48.92
2023-01-13T00:57:35.389Z,43.55
2023-01-13T01:00:07.511Z,49.28
2023-01-13T01:02:39.002Z,42.38
2023-01-13T01:05:10.687Z,43.97
2023-01-13T01:07:42.122Z,44.72
2023-01-13T01:10:13.941Z,42.70
2023-01-13T01:12:45.374Z,44.95
2023-01-13T01:15:17.405Z,43.88
2023-01-13T01:17:48.910Z,50.10
2023-01-13T01:20:20.316Z,50.43
2023-01-13T01:22:51.753Z,47.92
2023-01-13T01:25:23.182Z,51.25
2023-01-13T01:27:54.662Z,64.20
2023-01-13T01:30:26.780Z,56.42
2023-01-13T01:32:58.188Z,56.35
2023-01-13T01:35:29.581Z,50.60
2023-01-13T01:38:00.978Z,50.53
2023-01-13T01:40:32.531Z,49.42
2023-01-13T01:43:14.715Z,55.58
2023-01-13T01:45:46.125Z,52.05
2023-01-13T01:48:17.530Z,55.55
2023-01-13T01:50:49.073Z,61.63
2023-01-13T01:53:24.492Z,51.67
2023-01-13T01:55:57.648Z,55.43
2023-01-13T01:58:35.130Z,51.33
2023-01-13T02:01:08.771Z,51.15
2023-01-13T02:03:45.694Z,49.20
2023-01-13T02:06:17.231Z,49.72
2023-01-13T02:08:48.858Z,56.83
2023-01-13T02:11:34.054Z,51.55
2023-01-13T02:14:05.465Z,49.33
2023-01-13T02:16:43.306Z,61.42
2023-01-13T02:19:59.655Z,52.20
2023-01-13T02:23:01.960Z,57.03
2023-01-13T02:25:36.541Z,58.13
2023-01-13T02:28:27.912Z,57.65
2023-01-13T02:31:08.627Z,55.95
2023-01-13T02:34:06.109Z,50.65
2023-01-13T02:36:49.684Z,49.73
2023-01-13T02:39:27.364Z,51.97
2023-01-13T02:42:08.946Z,50.67
2023-01-13T02:44:52.215Z,53.63
2023-01-13T02:47:30.621Z,60.23
2023-01-13T02:50:10.966Z,52.35
2023-01-13T02:52:51.190Z,59.67
2023-01-13T02:55:29.983Z,57.95
2023-01-13T02:58:04.279Z,56.28
2023-01-13T03:00:37.018Z,50.55
2023-01-13T03:03:08.568Z,52.38
2023-01-13T03:05:44.021Z,54.83
2023-01-13T03:08:43.070Z,48.83
2023-01-13T03:11:17.543Z,45.60
2023-01-13T03:14:07.303Z,44.07
2023-01-13T03:17:02.326Z,40.90
2023-01-13T03:19:57.200Z,42.03
2023-01-13T03:22:38.205Z,40.08
2023-01-13T03:25:18.659Z,48.05
2023-01-13T03:28:02.438Z,45.60
2023-01-13T03:30:43.552Z,37.85
2023-01-13T03:33:18.071Z,36.15
2023-01-13T03:35:53.067Z,39.65
2023-01-13T03:38:31.751Z,39.22
2023-01-13T03:41:11.848Z,36.90
2023-01-13T03:44:13.531Z,36.60
2023-01-13T03:46:49.345Z,42.67
2023-01-13T03:49:25.857Z,38.45
2023-01-13T03:52:01.861Z,39.07
2023-01-13T03:54:39.469Z,37.73
2023-01-13T03:57:15.351Z,36.35
2023-01-13T03:59:51.022Z,32.30
2023-01-13T04:02:47.110Z,32.78
2023-01-13T04:05:18.924Z,29.60
2023-01-13T04:07:58.992Z,27.63
2023-01-13T04:10:36.292Z,28.42
2023-01-13T04:13:19.084Z,28.90
2023-01-13T04:15:50.715Z,28.83
2023-01-13T04:18:28.065Z,32.15
2023-01-13T04:21:01.610Z,32.28
2023-01-13T04:23:33.212Z,28.63
2023-01-13T04:26:04.730Z,34.05
2023-01-13T04:28:36.197Z,26.08
2023-01-13T04:31:07.642Z,32.28
2023-01-13T04:33:39.046Z,26.90
2023-01-13T04:36:10.545Z,28.40
2023-01-13T04:38:41.941Z,25.20
2023-01-13T04:41:13.457Z,28.30
2023-01-13T04:43:44.870Z,19.80
2023-01-13T04:46:16.393Z,23.65
2023-01-13T04:48:47.808Z,22.80
2023-01-13T04:51:19.234Z,23.33
2023-01-13T04:53:50.680Z,23.60
2023-01-13T04:56:22.104Z,25.45
2023-01-13T04:58:53.615Z,23.92
2023-01-13T05:01:28.638Z,23.50
2023-01-13T05:04:00.111Z,20.77
2023-01-13T05:06:31.640Z,26.77
2023-01-13T05:09:03.428Z,24.75
2023-01-13T05:11:34.823Z,26.85
2023-01-13T05:14:06.360Z,25.30
2023-01-13T05:16:37.876Z,25.43
2023-01-13T05:19:09.523Z,24.50
2023-01-13T05:21:40.966Z,27.30
2023-01-13T05:24:12.379Z,24.42
2023-01-13T05:26:43.943Z,27.57
2023-01-13T05:29:15.360Z,27.85
2023-01-13T05:31:46.812Z,30.53
2023-01-13T05:34:18.280Z,23.30
2023-01-13T05:36:49.694Z,23.67
2023-01-13T05:39:21.123Z,26.05
2023-01-13T05:41:52.546Z,29.70
2023-01-13T05:44:23.938Z,30.60
2023-01-13T05:46:55.407Z,30.02
2023-01-13T05:49:26.868Z,30.42
2023-01-13T05:51:58.296Z,27.00
2023-01-13T05:54:29.736Z,27.63
2023-01-13T05:57:01.154Z,27.70
2023-01-13T05:59:32.529Z,23.25
2023-01-13T06:02:04.160Z,25.38
2023-01-13T06:04:35.591Z,24.92
2023-01-13T06:07:07.054Z,30.47
2023-01-13T06:09:38.493Z,28.70
2023-01-13T06:12:13.311Z,32.17
2023-01-13T06:14:44.775Z,32.22
2023-01-13T06:17:16.575Z,28.97
2023-01-13T06:19:48.033Z,26.95
2023-01-13T06:22:26.425Z,25.52
2023-01-13T06:24:58.469Z,28.35
2023-01-13T06:27:30.347Z,27.55
2023-01-13T06:30:01.816Z,26.80
2023-01-13T06:32:37.458Z,28.70
2023-01-13T06:35:13.901Z,31.35
2023-01-13T06:37:50.924Z,30.08
2023-01-13T06:40:23.071Z,26.73
2023-01-13T06:42:57.125Z,27.02
2023-01-13T06:45:30.730Z,28.95
2023-01-13T06:48:02.280Z,29.95
2023-01-13T06:50:33.728Z,31.75
2023-01-13T06:53:05.191Z,27.90
2023-01-13T06:55:37.020Z,33.28
2023-01-13T06:58:08.477Z,28.58
2023-01-13T07:00:39.996Z,29.38
2023-01-13T07:03:14.345Z,32.85
2023-01-13T07:05:54.762Z,27.50
2023-01-13T07:08:26.224Z,28.65
2023-01-13T07:10:57.773Z,28.20
2023-01-13T07:13:29.222Z,27.90
2023-01-13T07:16:03.662Z,30.65
2023-01-13T07:18:36.025Z,30.60
2023-01-13T07:21:09.828Z,28.45
2023-01-13T07:23:41.834Z,30.57
2023-01-13T07:26:14.423Z,30.97
2023-01-13T07:28:45.840Z,28.65
2023-01-13T07:31:19.391Z,35.63
2023-01-13T07:33:50.982Z,31.63
2023-01-13T07:36:22.444Z,28.30
2023-01-13T07:38:54.901Z,28.25
2023-01-13T07:41:26.483Z,40.00
2023-01-13T07:43:57.907Z,30.52
2023-01-13T07:46:29.385Z,33.13
2023-01-13T07:49:00.857Z,27.58
2023-01-13T07:51:32.342Z,32.53
2023-01-13T07:54:03.895Z,27.98
2023-01-13T07:56:35.345Z,32.63
2023-01-13T07:59:06.774Z,37.20
2023-01-13T08:01:38.269Z,35.90
2023-01-13T08:04:09.803Z,34.17
2023-01-13T08:06:41.186Z,32.50
2023-01-13T08:09:12.775Z,34.00
2023-01-13T08:11:44.217Z,31.80
2023-01-13T08:14:15.657Z,34.38
2023-01-13T08:16:47.167Z,34.60
2023-01-13T08:19:18.655Z,36.13
2023-01-13T08:21:50.102Z,34.38
2023-01-13T08:24:21.582Z,33.67
2023-01-13T08:26:53.085Z,35.40
2023-01-13T08:29:24.491Z,36.15
2023-01-13T08:31:55.942Z,33.35
2023-01-13T08:34:27.389Z,37.83
2023-01-13T08:36:58.794Z,34.70
2023-01-13T08:39:30.341Z,36.37
2023-01-13T08:42:03.537Z,40.03
2023-01-13T08:44:34.990Z,36.60
2023-01-13T08:47:06.456Z,34.75
2023-01-13T08:49:37.881Z,35.55
2023-01-13T08:52:09.421Z,32.05
2023-01-13T08:54:40.915Z,36.97
2023-01-13T08:57:14.463Z,34.08
2023-01-13T08:59:46.816Z,30.77
2023-01-13T09:02:21.262Z,36.53
2023-01-13T09:04:53.410Z,30.10
2023-01-13T09:07:24.847Z,31.45
2023-01-13T09:09:56.289Z,33.00
2023-01-13T09:12:28.006Z,33.28
2023-01-13T09:14:59.766Z,32.35
2023-01-13T09:17:31.197Z,31.00
2023-01-13T09:20:02.754Z,31.60
2023-01-13T09:22:34.198Z,36.20
2023-01-13T09:25:06.157Z,36.67
2023-01-13T09:27:37.560Z,32.80
2023-01-13T09:30:09.740Z,30.05
2023-01-13T09:32:41.184Z,33.33
2023-01-13T09:35:12.627Z,33.72
2023-01-13T09:37:44.077Z,27.73
2023-01-13T09:40:20.199Z,31.55
2023-01-13T09:43:14.369Z,34.28
2023-01-13T09:45:57.615Z,32.03
2023-01-13T09:48:32.452Z,27.95
2023-01-13T09:51:14.955Z,29.10
2023-01-13T09:54:02.076Z,27.10
2023-01-13T09:56:33.524Z,27.15
2023-01-13T09:59:05.055Z,27.55
2023-01-13T10:02:03.210Z,28.38
2023-01-13T10:04:34.735Z,23.77
2023-01-13T10:07:14.148Z,29.55
2023-01-13T10:09:52.663Z,25.33
2023-01-13T10:12:26.447Z,29.17
2023-01-13T10:14:57.945Z,26.30
2023-01-13T10:18:06.542Z,34.37
2023-01-13T10:21:02.455Z,30.38
2023-01-13T10:24:00.282Z,34.55
2023-01-13T10:26:44.753Z,29.83
2023-01-13T10:29:21.653Z,32.78
2023-01-13T10:31:54.639Z,27.15
2023-01-13T10:34:27.462Z,28.27
2023-01-13T10:37:00.370Z,27.60
2023-01-13T10:39:54.655Z,26.40
2023-01-13T10:42:26.401Z,23.08
2023-01-13T10:44:59.730Z,30.40
2023-01-13T10:47:36.559Z,24.13
2023-01-13T10:50:13.896Z,28.23
2023-01-13T10:53:23.778Z,23.17
2023-01-13T10:56:03.612Z,27.63
2023-01-13T10:58:35.053Z,29.67
2023-01-13T11:01:06.980Z,24.87
2023-01-13T11:03:40.451Z,23.97
2023-01-13T11:06:29.877Z,22.98
2023-01-13T11:09:01.334Z,28.55
2023-01-13T11:11:41.920Z,30.27
2023-01-13T11:14:22.365Z,25.25
2023-01-13T11:16:58.347Z,26.80
2023-01-13T11:19:32.089Z,25.23
2023-01-13T11:22:19.434Z,24.97
2023-01-13T11:24:55.323Z,27.55
2023-01-13T11:27:48.513Z,29.92
2023-01-13T11:30:32.787Z,30.05
2023-01-13T11:33:10.020Z,31.88
2023-01-13T11:35:52.588Z,26.13
2023-01-13T11:38:40.668Z,22.13
2023-01-13T11:41:24.091Z,21.63
2023-01-13T11:43:59.676Z,24.15
2023-01-13T11:46:31.254Z,29.58
2023-01-13T11:49:03.973Z,22.13
2023-01-13T11:51:38.311Z,19.48
2023-01-13T11:54:24.931Z,23.70
2023-01-13T11:57:23.753Z,19.20
2023-01-13T11:59:57.889Z,20.80
2023-01-13T12:02:47.620Z,20.23
2023-01-13T12:05:35.978Z,21.33
2023-01-13T12:08:26.055Z,20.98
2023-01-13T12:11:09.636Z,21.88
2023-01-13T12:14:16.641Z,23.60
2023-01-13T12:16:49.527Z,24.63
2023-01-13T12:19:30.274Z,16.23
2023-01-13T12:22:16.456Z,24.50
2023-01-13T12:24:58.099Z,21.35
2023-01-13T12:27:35.509Z,21.75
2023-01-13T12:30:27.100Z,27.65
2023-01-13T12:33:12.812Z,22.08
2023-01-13T12:35:59.400Z,22.98
2023-01-13T12:38:45.395Z,28.45
2023-01-13T12:41:35.446Z,26.15
2023-01-13T12:44:08.370Z,22.40
2023-01-13T12:46:54.423Z,24.38
2023-01-13T12:49:34.115Z,24.88
2023-01-13T12:52:11.058Z,24.53
2023-01-13T12:54:42.481Z,22.10
2023-01-13T12:57:16.756Z,22.27
2023-01-13T13:00:03.230Z,22.50
2023-01-13T13:02:42.133Z,23.80
2023-01-13T13:05:25.622Z,22.10
2023-01-13T13:08:21.475Z,20.55
2023-01-13T13:11:01.936Z,28.48
2023-01-13T13:13:48.391Z,24.02
2023-01-13T13:16:25.964Z,26.57
2023-01-13T13:19:19.064Z,25.00
2023-01-13T13:22:12.454Z,27.75
2023-01-13T13:25:03.873Z,21.93
2023-01-13T13:27:38.081Z,21.10
2023-01-13T13:30:23.683Z,24.13
2023-01-13T13:33:31.133Z,24.35
2023-01-13T13:36:15.991Z,24.60
2023-01-13T13:39:11.581Z,23.27
2023-01-13T13:41:47.686Z,20.80
2023-01-13T13:44:28.972Z,25.27
2023-01-13T13:47:03.350Z,19.08
2023-01-13T13:49:43.789Z,21.50
2023-01-13T13:52:18.109Z,20.13
2023-01-13T13:54:52.569Z,24.95
2023-01-13T13:57:34.947Z,26.50
2023-01-13T14:00:19.500Z,26.17
2023-01-13T14:02:54.418Z,24.17
2023-01-13T14:05:34.055Z,20.58
2023-01-13T14:08:16.651Z,22.83
2023-01-13T14:10:48.123Z,19.10
2023-01-13T14:13:22.122Z,20.73
2023-01-13T14:16:02.160Z,21.23
2023-01-13T14:18:45.215Z,17.42
2023-01-13T14:21:26.554Z,22.17
2023-01-13T14:24:01.814Z,22.35
2023-01-13T14:26:33.240Z,26.02
2023-01-13T14:29:05.469Z,24.38
2023-01-13T14:31:38.399Z,22.55
2023-01-13T14:34:31.441Z,16.95
2023-01-13T14:37:03.853Z,23.75
2023-01-13T14:39:41.078Z,26.58
2023-01-13T14:42:15.672Z,26.15
2023-01-13T14:44:50.226Z,20.98
2023-01-13T14:47:32.360Z,24.93
2023-01-13T14:50:12.745Z,20.35
2023-01-13T14:52:49.701Z,23.17
2023-01-13T14:55:35.822Z,24.05
2023-01-13T14:58:20.441Z,19.33
2023-01-13T15:01:12.984Z,20.67
2023-01-13T15:03:44.418Z,19.65
2023-01-13T15:06:24.554Z,27.10
2023-01-13T15:08:56.078Z,25.13
2023-01-13T15:11:28.905Z,19.98
2023-01-13T15:14:01.523Z,24.55
2023-01-13T15:16:34.929Z,21.73
2023-01-13T15:19:09.059Z,22.63
2023-01-13T15:21:40.518Z,20.83
2023-01-13T15:24:11.971Z,26.33
2023-01-13T15:26:43.563Z,21.98
2023-01-13T15:29:24.299Z,19.83
2023-01-13T15:31:55.877Z,24.30
2023-01-13T15:34:27.362Z,20.70
2023-01-13T15:36:58.763Z,20.73
2023-01-13T15:39:30.199Z,28.08
2023-01-13T15:42:01.641Z,24.75
2023-01-13T15:44:33.079Z,20.00
2023-01-13T15:47:09.925Z,24.80
2023-01-13T15:49:44.633Z,24.93
2023-01-13T15:52:24.985Z,20.33
2023-01-13T15:54:56.427Z,22.75
2023-01-13T15:57:30.833Z,21.73
2023-01-13T16:00:12.924Z,22.52
2023-01-13T16:02:44.467Z,22.48
2023-01-13T16:05:16.130Z,20.95
2023-01-13T16:07:47.606Z,21.88
2023-01-13T16:10:23.389Z,29.08
2023-01-13T16:12:55.388Z,23.73
2023-01-13T16:15:26.823Z,20.05
2023-01-13T16:18:01.171Z,19.70
2023-01-13T16:20:32.584Z,21.55
2023-01-13T16:23:04.006Z,24.33
2023-01-13T16:25:35.436Z,24.52
2023-01-13T16:28:07.070Z,23.80
2023-01-13T16:30:38.531Z,22.13
2023-01-13T16:33:09.989Z,20.53
2023-01-13T16:35:43.994Z,16.73
2023-01-13T16:38:33.470Z,24.35
2023-01-13T16:41:05.066Z,22.23
2023-01-13T16:43:36.510Z,24.42
2023-01-13T16:46:19.173Z,21.60
2023-01-13T16:48:52.885Z,21.42
2023-01-13T16:51:24.625Z,21.97
2023-01-13T16:53:56.209Z,19.23
2023-01-13T16:56:30.421Z,17.63
2023-01-13T16:59:10.633Z,13.00
2023-01-13T17:01:43.433Z,14.27
2023-01-13T17:04:18.388Z,14.77
2023-01-13T17:07:06.035Z,16.88
2023-01-13T17:09:37.475Z,17.40
2023-01-13T17:12:10.323Z,16.15
2023-01-13T17:14:41.782Z,18.13
2023-01-13T17:17:25.272Z,18.92
2023-01-13T17:19:56.672Z,16.17
2023-01-13T17:22:28.133Z,19.33
2023-01-13T17:24:59.622Z,19.27
2023-01-13T17:27:31.552Z,18.42
2023-01-13T17:30:03.308Z,16.48
2023-01-13T17:32:34.723Z,15.93
2023-01-13T17:35:06.833Z,16.65
2023-01-13T17:37:38.299Z,14.32
2023-01-13T17:40:10.502Z,17.77
2023-01-13T17:42:41.946Z,13.50
2023-01-13T17:45:13.360Z,13.15
2023-01-13T17:47:47.232Z,15.52
2023-01-13T17:50:18.961Z,17.23
2023-01-13T17:52:50.475Z,13.07
2023-01-13T17:55:21.939Z,20.50
2023-01-13T17:57:53.367Z,22.05
2023-01-13T18:00:24.908Z,21.45
2023-01-13T18:02:56.387Z,24.73
2023-01-13T18:05:27.973Z,16.38
2023-01-13T18:07:59.611Z,16.33
2023-01-13T18:10:32.435Z,17.48
2023-01-13T18:13:04.015Z,20.20
2023-01-13T18:15:35.953Z,26.10
2023-01-13T18:18:07.407Z,23.75
2023-01-13T18:20:38.830Z,24.85
2023-01-13T18:23:16.992Z,23.37
2023-01-13T18:25:48.431Z,21.27
2023-01-13T18:28:19.871Z,24.60
2023-01-13T18:30:51.345Z,22.27
2023-01-13T18:33:23.358Z,17.70
2023-01-13T18:35:54.794Z,18.83
2023-01-13T18:38:26.293Z,19.27
2023-01-13T18:40:57.716Z,15.55
2023-01-13T18:43:32.919Z,19.98
2023-01-13T18:46:04.408Z,14.25
2023-01-13T18:48:35.856Z,18.23
2023-01-13T18:51:07.304Z,14.88
2023-01-13T18:53:38.772Z,17.77
2023-01-13T18:56:11.450Z,14.88
2023-01-13T18:58:43.833Z,22.40
2023-01-13T19:01:15.323Z,17.58
2023-01-13T19:03:46.844Z,18.23
2023-01-13T19:06:18.271Z,16.63
2023-01-13T19:08:50.118Z,17.75
2023-01-13T19:11:22.944Z,18.27
2023-01-13T19:13:54.341Z,21.60
2023-01-13T19:16:25.856Z,22.45
2023-01-13T19:18:57.294Z,15.57
2023-01-13T19:21:28.716Z,17.52
2023-01-13T19:24:00.178Z,16.67
2023-01-13T19:26:31.623Z,18.25
2023-01-13T19:29:03.014Z,16.83
2023-01-13T19:31:34.469Z,18.40
2023-01-13T19:34:06.054Z,18.23
2023-01-13T19:36:37.469Z,17.92
2023-01-13T19:39:08.938Z,15.20
2023-01-13T19:41:40.453Z,18.75
2023-01-13T19:44:13.316Z,14.38
2023-01-13T19:46:46.176Z,20.08
2023-01-13T19:49:17.618Z,19.95
2023-01-13T19:51:49.290Z,17.65
2023-01-13T19:54:20.739Z,15.02
2023-01-13T19:56:52.306Z,16.98
2023-01-13T19:59:23.778Z,16.77
2023-01-13T20:02:00.083Z,20.05
2023-01-13T20:04:31.573Z,18.07
2023-01-13T20:07:06.895Z,22.38
2023-01-13T20:09:38.482Z,21.23
2023-01-13T20:12:10.868Z,18.38
2023-01-13T20:14:42.710Z,22.95
2023-01-13T20:17:15.830Z,19.05
2023-01-13T20:19:47.725Z,21.95
2023-01-13T20:22:19.202Z,19.48
2023-01-13T20:24:50.782Z,18.92
2023-01-13T20:27:22.907Z,17.95
2023-01-13T20:29:54.316Z,17.25
2023-01-13T20:32:25.850Z,19.92
2023-01-13T20:34:57.298Z,16.92
2023-01-13T20:37:28.698Z,22.65
2023-01-13T20:40:00.152Z,18.80
2023-01-13T20:42:32.108Z,20.23
2023-01-13T20:45:03.775Z,20.83
2023-01-13T20:47:35.223Z,24.38
2023-01-13T20:50:07.384Z,20.83
2023-01-13T20:52:38.848Z,21.58
2023-01-13T20:55:10.928Z,22.17
2023-01-13T20:57:42.363Z,22.58
2023-01-13T21:00:14.104Z,20.23
2023-01-13T21:02:45.557Z,19.80
2023-01-13T21:05:17.050Z,21.02
2023-01-13T21:07:48.420Z,16.95
2023-01-13T21:10:19.866Z,20.33
2023-01-13T21:12:51.334Z,18.07
2023-01-13T21:15:22.899Z,24.20
2023-01-13T21:17:54.391Z,20.35
2023-01-13T21:20:25.853Z,17.35
2023-01-13T21:22:57.298Z,20.40
2023-01-13T21:25:29.608Z,18.95
2023-01-13T21:28:01.089Z,18.40
2023-01-13T21:30:32.832Z,20.23
2023-01-13T21:33:04.424Z,16.42
2023-01-13T21:35:38.628Z,18.00
2023-01-13T21:38:11.106Z,21.55
2023-01-13T21:40:42.568Z,21.67
2023-01-13T21:43:14.046Z,20.42
2023-01-13T21:45:45.473Z,19.85
2023-01-13T21:48:16.900Z,14.85
2023-01-13T21:50:48.312Z,22.85
2023-01-13T21:53:19.773Z,22.20
2023-01-13T21:55:51.420Z,20.55
2023-01-13T21:58:22.946Z,22.37
2023-01-13T22:00:54.454Z,21.92
2023-01-13T22:03:25.971Z,19.02
2023-01-13T22:05:57.388Z,19.90
2023-01-13T22:08:28.774Z,19.50
2023-01-13T22:11:02.579Z,23.35
2023-01-13T22:13:33.974Z,20.67
2023-01-13T22:16:05.864Z,19.10
2023-01-13T22:18:37.273Z,20.35
2023-01-13T22:21:08.747Z,18.13
2023-01-13T22:23:40.316Z,18.70
2023-01-13T22:26:12.051Z,20.17
2023-01-13T22:28:43.614Z,19.77
2023-01-13T22:31:18.115Z,20.80
2023-01-13T22:33:53.870Z,19.02
2023-01-13T22:36:25.326Z,21.03
2023-01-13T22:38:56.817Z,18.15
2023-01-13T22:41:28.277Z,20.63
2023-01-13T22:43:59.700Z,21.20
2023-01-13T22:46:31.073Z,19.40
2023-01-13T22:49:02.560Z,19.53
2023-01-13T22:51:34.022Z,17.98
2023-01-13T22:54:05.645Z,18.58
2023-01-13T22:56:37.357Z,17.48
2023-01-13T22:59:11.871Z,17.33
2023-01-13T23:01:43.637Z,19.27
2023-01-13T23:04:15.212Z,18.38
2023-01-13T23:06:46.681Z,18.00
2023-01-13T23:09:18.106Z,14.75
2023-01-13T23:11:49.602Z,20.65
2023-01-13T23:14:21.051Z,23.80
2023-01-13T23:16:52.638Z,20.05
2023-01-13T23:19:24.154Z,16.20
2023-01-13T23:21:55.570Z,19.48
2023-01-13T23:24:27.007Z,17.35
2023-01-13T23:26:58.489Z,19.38
2023-01-13T23:29:30.033Z,17.90
2023-01-13T23:32:01.441Z,16.58
2023-01-13T23:34:32.882Z,12.83
2023-01-13T23:37:04.302Z,15.75
2023-01-13T23:39:35.747Z,17.42
2023-01-13T23:42:07.200Z,18.30
2023-01-13T23:44:38.624Z,21.40
2023-01-13T23:47:10.268Z,22.27
2023-01-13T23:49:41.682Z,21.75
2023-01-13T23:52:13.144Z,24.02
2023-01-13T23:54:44.611Z,20.77
2023-01-13T23:57:16.104Z,19.33
2023-01-13T23:59:47.564Z,20.52
